Atglen, Pennsylvania
Current Conditions -  °F | °C
As of 7:55 PM on Tuesday 21 Oct 2014 (Local Time) from KMQS Reporting Station
Clear Clear  
Wind Chill: 13°   Ceiling: Unl
Heat Index: 13°   Visibility: 10mi
Dew Point:   Wind: 5mph
Humidity: 77%   Direction: 350°N
Pressure: 29.86"   Gusts: NA
Location:  39.95°N, 75.97°W
Report Text: KMQS 212355Z AUTO 35004KT 10SM CLR 13/09 A2986 RMK AO2
Loading
Personal Weather Stations






























Interactive Weather Map
Tropical Storm Tracking
New forecast layout! Learn more

10-Day Weather Forecast

Advertisements
Track Severe Weather on mobile